Time;durP1;ratioP1;P1;durP2;ratioP2;P2;SDS_P1;SDS_P2;PMS_P1;PMS_P2;Temp;Humidity;BMP_temperature;BMP_pressure;BME280_temperature;BME280_humidity;BME280_pressure;Samples;Min_cycle;Max_cycle;Signal;HPM_P1;HPM_P2
2022/10/25 00:00:18;;;;;;;2.43;0.50;;;;;;;9.75;100.00;97881.06;6256376;28;20341;-39
2022/10/25 00:03:20;;;;;;;3.03;0.63;;;;;;;9.70;100.00;97883.19;6276441;28;20227;-40
2022/10/25 00:06:23;;;;;;;0.97;0.70;;;;;;;9.69;100.00;97882.34;6259874;28;20229;-40
2022/10/25 00:09:25;;;;;;;1.10;0.53;;;;;;;9.69;100.00;97869.16;6257793;28;20227;-40
2022/10/25 00:12:27;;;;;;;1.17;0.50;;;;;;;9.68;100.00;97872.78;6256290;28;20236;-40
2022/10/25 00:15:29;;;;;;;0.87;0.60;;;;;;;9.69;100.00;97889.41;6239538;28;20312;-40
2022/10/25 00:18:32;;;;;;;0.87;0.50;;;;;;;9.69;100.00;97903.41;6257356;28;20238;-40
2022/10/25 00:21:34;;;;;;;2.00;0.53;;;;;;;9.72;100.00;97903.19;6256291;28;21008;-39
2022/10/25 00:24:36;;;;;;;0.50;0.50;;;;;;;9.75;100.00;97910.06;6256825;28;20241;-40
2022/10/25 00:27:38;;;;;;;2.10;0.40;;;;;;;9.77;100.00;97902.88;6256227;28;20274;-39
2022/10/25 00:30:40;;;;;;;1.67;0.50;;;;;;;9.75;100.00;97910.88;6270223;28;20268;-39
2022/10/25 00:33:44;;;;;;;1.80;0.40;;;;;;;9.75;100.00;97917.97;6256259;28;20683;-39
2022/10/25 00:36:46;;;;;;;0.80;0.60;;;;;;;9.77;100.00;97909.00;6256835;28;20718;-39
2022/10/25 00:39:48;;;;;;;1.30;0.50;;;;;;;9.77;100.00;97900.25;6257566;28;20237;-40
2022/10/25 00:42:50;;;;;;;1.10;0.60;;;;;;;9.72;100.00;97907.63;6255708;28;20661;-39
2022/10/25 00:45:52;;;;;;;2.83;0.50;;;;;;;9.69;100.00;97910.47;6256327;28;20908;-39
2022/10/25 00:49:03;;;;;;;0.93;0.50;;;;;;;9.65;100.00;97904.59;6256551;28;20230;-41
2022/10/25 00:52:07;;;;;;;2.40;0.57;;;;;;;9.61;100.00;97901.34;6255771;28;20250;-39
2022/10/25 00:55:13;;;;;;;1.30;0.70;;;;;;;9.60;100.00;97897.03;6256064;28;20380;-39
2022/10/25 00:58:19;;;;;;;0.47;0.40;;;;;;;9.58;100.00;97906.81;6255659;28;20235;-40
2022/10/25 01:01:22;;;;;;;3.53;0.60;;;;;;;9.59;100.00;97905.88;6263282;28;20594;-40
2022/10/25 01:04:27;;;;;;;2.83;0.67;;;;;;;9.61;100.00;97900.50;6262922;28;20297;-40
2022/10/25 01:07:29;;;;;;;3.03;0.50;;;;;;;9.62;100.00;97900.41;6254823;28;20720;-39
2022/10/25 01:10:31;;;;;;;2.80;0.70;;;;;;;9.61;100.00;97897.88;6256217;28;20295;-39
2022/10/25 01:13:35;;;;;;;2.90;0.63;;;;;;;9.61;100.00;97900.50;6255147;28;20277;-40
2022/10/25 01:17:02;;;;;;;1.97;0.60;;;;;;;9.60;100.00;97891.75;6255531;28;20231;-39
2022/10/25 01:20:22;;;;;;;0.70;0.50;;;;;;;9.61;100.00;97885.53;6254811;28;20326;-39
2022/10/25 01:23:44;;;;;;;5.60;0.87;;;;;;;9.62;100.00;97884.59;6237568;28;20281;-39
2022/10/25 01:26:46;;;;;;;3.73;0.57;;;;;;;9.61;100.00;97889.97;6255470;28;20252;-39
2022/10/25 01:30:03;;;;;;;2.03;0.80;;;;;;;9.62;100.00;97891.66;6254039;28;20242;-39
2022/10/25 01:33:40;;;;;;;0.97;0.43;;;;;;;9.66;100.00;97897.53;6224046;28;20297;-39
2022/10/25 01:36:55;;;;;;;2.53;0.63;;;;;;;9.63;100.00;97903.88;6229540;28;20262;-39
2022/10/25 01:40:21;;;;;;;0.53;0.53;;;;;;;9.64;100.00;97884.47;6254845;28;20277;-39
2022/10/25 01:43:34;;;;;;;2.50;0.70;;;;;;;9.66;100.00;97901.03;6254656;28;20319;-39
2022/10/25 01:47:02;;;;;;;0.77;0.50;;;;;;;9.67;100.00;97889.53;6254520;28;20233;-39
2022/10/25 01:50:09;;;;;;;4.00;0.60;;;;;;;9.69;100.00;97894.66;6247005;28;21655;-39
2022/10/25 01:53:12;;;;;;;1.60;0.70;;;;;;;9.68;100.00;97890.38;6253975;28;20237;-39
2022/10/25 01:56:26;;;;;;;2.50;0.60;;;;;;;9.69;100.00;97892.03;6254584;28;20332;-40
2022/10/25 01:59:58;;;;;;;1.20;0.60;;;;;;;9.69;100.00;97899.94;6236747;28;20249;-39
2022/10/25 02:03:27;;;;;;;3.63;0.70;;;;;;;9.70;100.00;97896.34;6254366;28;20230;-40
2022/10/25 02:06:52;;;;;;;1.03;0.53;;;;;;;9.68;100.00;97906.19;6236712;28;20225;-39
2022/10/25 02:10:22;;;;;;;2.40;0.60;;;;;;;9.69;100.00;97899.94;6256780;28;20714;-39
2022/10/25 02:13:42;;;;;;;0.73;0.50;;;;;;;9.67;100.00;97897.44;6249433;28;20323;-39
2022/10/25 02:16:50;;;;;;;2.60;0.60;;;;;;;9.70;100.00;97901.63;6254064;28;20232;-39
2022/10/25 02:19:57;;;;;;;4.60;0.70;;;;;;;9.71;100.00;97903.31;6253404;28;20590;-39
2022/10/25 02:23:02;;;;;;;0.90;0.60;;;;;;;9.71;100.00;97898.88;6254948;28;20367;-39
2022/10/25 02:26:07;;;;;;;1.70;0.90;;;;;;;9.74;100.00;97901.31;6228319;28;20328;-39
2022/10/25 02:29:10;;;;;;;3.37;0.97;;;;;;;9.73;100.00;97899.63;6250504;28;20237;-39
2022/10/25 02:32:12;;;;;;;2.40;1.03;;;;;;;9.75;100.00;97902.97;6261102;28;20224;-39
2022/10/25 02:35:17;;;;;;;2.67;0.67;;;;;;;9.76;100.00;97896.75;6283694;28;20806;-39
2022/10/25 02:38:19;;;;;;;1.03;0.90;;;;;;;9.79;100.00;97893.88;6260374;28;20613;-40
2022/10/25 02:41:22;;;;;;;2.57;0.70;;;;;;;9.84;100.00;97891.75;6258707;28;21026;-39
2022/10/25 02:44:24;;;;;;;2.30;0.60;;;;;;;9.84;100.00;97891.75;6258472;28;20259;-39
2022/10/25 02:47:26;;;;;;;6.80;0.90;;;;;;;9.92;100.00;97885.91;6258629;28;20247;-39
2022/10/25 02:50:28;;;;;;;2.33;1.10;;;;;;;10.00;100.00;97894.94;6258194;28;20759;-39
2022/10/25 02:53:31;;;;;;;5.83;0.87;;;;;;;10.10;100.00;97892.44;6258692;28;20318;-39
2022/10/25 02:56:33;;;;;;;2.43;0.80;;;;;;;10.11;100.00;97885.38;6257976;28;20230;-39
2022/10/25 02:59:35;;;;;;;2.50;0.77;;;;;;;10.14;100.00;97883.34;6258473;28;20299;-39
2022/10/25 03:02:37;;;;;;;2.93;0.87;;;;;;;10.15;100.00;97887.69;6272047;28;20269;-39
2022/10/25 03:05:39;;;;;;;3.70;1.13;;;;;;;10.21;100.00;97881.13;6258573;28;20238;-39
2022/10/25 03:08:43;;;;;;;3.23;0.90;;;;;;;10.25;100.00;97872.03;6258578;28;20257;-39
2022/10/25 03:11:45;;;;;;;2.57;0.97;;;;;;;10.26;100.00;97871.91;6258212;28;20883;-39
2022/10/25 03:14:47;;;;;;;2.77;1.10;;;;;;;10.27;100.00;97868.34;6257682;28;20225;-39
2022/10/25 03:17:49;;;;;;;2.17;0.90;;;;;;;10.26;100.00;97871.91;6257823;28;20336;-39
2022/10/25 03:20:51;;;;;;;1.30;0.80;;;;;;;10.29;100.00;97876.94;6258822;28;20714;-39
2022/10/25 03:23:53;;;;;;;1.80;1.00;;;;;;;10.30;100.00;97877.78;6258104;28;20226;-40
2022/10/25 03:26:55;;;;;;;4.40;1.00;;;;;;;10.32;100.00;97881.16;6258208;28;20273;-39
2022/10/25 03:29:57;;;;;;;6.73;1.17;;;;;;;10.33;100.00;97890.75;6256987;28;20237;-40
2022/10/25 03:32:59;;;;;;;3.37;1.10;;;;;;;10.35;100.00;97894.13;6239031;28;20242;-40
2022/10/25 03:36:01;;;;;;;0.83;0.60;;;;;;;10.37;100.00;97889.56;6257168;28;20221;-41
2022/10/25 03:39:04;;;;;;;2.63;0.97;;;;;;;10.43;100.00;97888.25;6240092;28;20219;-39
2022/10/25 03:42:06;;;;;;;5.23;1.10;;;;;;;10.56;100.00;97886.38;6258607;28;20585;-39
2022/10/25 03:45:08;;;;;;;1.20;0.83;;;;;;;10.60;100.00;97883.34;6257756;28;20220;-40
2022/10/25 03:48:10;;;;;;;4.00;0.80;;;;;;;10.62;100.00;97886.72;6257241;28;20670;-40
2022/10/25 03:51:12;;;;;;;5.37;0.93;;;;;;;10.64;100.00;97891.88;6257287;28;20247;-39
2022/10/25 03:54:14;;;;;;;2.30;0.77;;;;;;;10.64;100.00;97891.88;6257464;28;20811;-39
2022/10/25 03:57:17;;;;;;;1.07;0.80;;;;;;;10.64;100.00;97890.09;6258376;28;20221;-39
2022/10/25 04:00:19;;;;;;;6.00;0.80;;;;;;;10.70;100.00;97884.31;6257393;28;20308;-39
2022/10/25 04:03:21;;;;;;;3.77;1.20;;;;;;;10.82;100.00;97881.69;6258315;28;20261;-39
2022/10/25 04:06:23;;;;;;;3.37;0.87;;;;;;;11.01;100.00;97887.22;6257412;28;20242;-40
2022/10/25 04:09:25;;;;;;;1.17;0.60;;;;;;;11.15;100.00;97891.41;6246637;28;20233;-40
2022/10/25 04:12:27;;;;;;;1.80;0.67;;;;;;;12.01;100.00;60274.75;6221650;28;20227;-39
2022/10/25 04:15:29;;;;;;;0.80;0.40;;;;;;;-144.22;100.00;60274.75;6256818;28;20226;-39
2022/10/25 04:18:31;;;;;;;1.63;0.40;;;;;;;-144.22;100.00;60274.75;6244353;28;20230;-39
2022/10/25 04:21:33;;;;;;;2.17;0.50;;;;;;;-144.22;100.00;60274.75;6238952;28;20714;-40
2022/10/25 04:24:35;;;;;;;0.53;0.50;;;;;;;-144.22;100.00;60274.75;6256398;28;20373;-39
2022/10/25 04:27:37;;;;;;;2.80;0.50;;;;;;;-144.22;100.00;60274.75;6256424;28;20835;-39
2022/10/25 04:30:40;;;;;;;0.60;0.60;;;;;;;-144.22;100.00;60274.75;6255946;28;20234;-40
2022/10/25 04:33:42;;;;;;;8.00;0.83;;;;;;;-144.22;100.00;60274.75;6255915;28;20238;-39
2022/10/25 04:36:49;;;;;;;5.17;0.67;;;;;;;-144.22;100.00;60274.75;6247527;28;20239;-39
2022/10/25 04:39:51;;;;;;;1.63;0.50;;;;;;;-144.22;100.00;60274.75;6237519;28;20368;-39
2022/10/25 04:42:53;;;;;;;2.87;0.60;;;;;;;-144.22;100.00;60274.75;6255711;28;20267;-40
2022/10/25 04:46:00;;;;;;;2.43;0.70;;;;;;;-144.22;100.00;60274.75;6255646;28;20258;-40
2022/10/25 04:49:02;;;;;;;0.87;0.57;;;;;;;-144.22;100.00;60274.75;6255913;28;20238;-40
2022/10/25 04:52:04;;;;;;;0.93;0.30;;;;;;;-144.22;100.00;60274.75;6255111;28;20365;-39
2022/10/25 04:55:06;;;;;;;1.03;0.50;;;;;;;-144.22;100.00;60274.75;6238459;28;20284;-39
2022/10/25 04:58:08;;;;;;;0.70;0.40;;;;;;;-144.22;100.00;60274.75;6255734;28;20230;-40
2022/10/25 05:01:14;;;;;;;1.80;0.70;;;;;;;-144.22;100.00;60274.75;6255841;28;20246;-39
2022/10/25 05:04:16;;;;;;;1.63;0.50;;;;;;;-144.22;100.00;60274.75;6254155;28;20235;-39
2022/10/25 05:07:19;;;;;;;1.67;0.50;;;;;;;16.55;100.00;60274.75;6255453;28;20709;-40
2022/10/25 05:10:21;;;;;;;0.60;0.50;;;;;;;-144.22;100.00;60274.75;6255867;28;20240;-39
2022/10/25 05:13:23;;;;;;;1.27;0.40;;;;;;;-144.22;100.00;60274.75;6254966;28;20239;-40
2022/10/25 05:16:25;;;;;;;2.60;0.47;;;;;;;-144.22;100.00;60274.75;6255038;28;20704;-39
2022/10/25 05:19:27;;;;;;;0.60;0.40;;;;;;;12.53;100.00;60274.75;6255545;28;20604;-39
2022/10/25 05:22:30;;;;;;;2.20;0.57;;;;;;;-144.22;100.00;60274.75;6255363;28;20714;-39
2022/10/25 05:25:32;;;;;;;2.03;0.50;;;;;;;16.55;100.00;60274.75;6255712;28;20236;-39
2022/10/25 05:28:35;;;;;;;0.93;0.47;;;;;;;-144.22;100.00;60274.75;6253799;28;20707;-39
2022/10/25 05:31:40;;;;;;;0.73;0.40;;;;;;;12.49;100.00;60274.75;6254591;28;20612;-39
2022/10/25 05:34:42;;;;;;;0.97;0.50;;;;;;;-144.22;100.00;60274.75;6253677;28;20619;-39
2022/10/25 05:37:44;;;;;;;3.00;0.60;;;;;;;21.74;100.00;60274.75;6254797;28;20785;-40
2022/10/25 05:40:57;;;;;;;0.73;0.50;;;;;;;12.54;100.00;60274.75;6230167;28;20370;-39
2022/10/25 05:44:00;;;;;;;0.57;0.50;;;;;;;-144.22;100.00;60274.75;6253199;28;20227;-41
2022/10/25 05:47:02;;;;;;;1.77;0.40;;;;;;;16.55;100.00;60274.75;6255014;28;20226;-39
2022/10/25 05:50:04;;;;;;;1.07;0.40;;;;;;;-144.22;100.00;60274.75;6254539;28;20318;-40
2022/10/25 05:53:06;;;;;;;1.20;0.40;;;;;;;-144.22;100.00;60274.75;6254486;28;20376;-40
2022/10/25 05:56:09;;;;;;;0.73;0.30;;;;;;;-144.22;100.00;60274.75;6254921;28;20263;-39
2022/10/25 05:59:13;;;;;;;4.30;0.50;;;;;;;16.55;100.00;60274.75;6254351;28;20306;-40
2022/10/25 06:02:15;;;;;;;1.23;0.40;;;;;;;-144.22;100.00;60274.75;6252988;28;20246;-40
2022/10/25 06:05:18;;;;;;;1.30;0.70;;;;;;;-144.22;100.00;60274.75;6254868;28;20790;-40
2022/10/25 06:08:20;;;;;;;0.87;0.60;;;;;;;-144.22;100.00;60274.75;6253232;28;20393;-40
2022/10/25 06:11:22;;;;;;;0.27;0.27;;;;;;;-144.22;100.00;60274.75;6253274;28;20237;-40
2022/10/25 06:14:24;;;;;;;1.90;0.60;;;;;;;-144.22;100.00;60274.75;6253744;28;20254;-40
2022/10/25 06:17:26;;;;;;;1.97;0.40;;;;;;;-144.22;100.00;60274.75;6252644;28;20231;-39
2022/10/25 06:20:28;;;;;;;3.70;0.70;;;;;;;-144.22;100.00;60274.75;6253586;28;20230;-40
2022/10/25 06:23:31;;;;;;;0.60;0.50;;;;;;;-144.22;100.00;60274.75;6236394;28;20724;-40
2022/10/25 06:26:33;;;;;;;0.60;0.20;;;;;;;-144.22;100.00;60274.75;6253823;28;20698;-40
2022/10/25 06:29:35;;;;;;;0.40;0.40;;;;;;;12.98;100.00;79616.75;6253377;28;20334;-40
2022/10/25 06:32:37;;;;;;;1.40;0.43;;;;;;;-144.22;100.00;60274.75;6254055;28;20230;-39
2022/10/25 06:35:39;;;;;;;2.00;0.40;;;;;;;-144.22;100.00;60274.75;6254011;28;20689;-39
2022/10/25 06:38:42;;;;;;;0.47;0.40;;;;;;;-144.22;100.00;60274.75;6253119;28;20758;-39
2022/10/25 06:41:44;;;;;;;0.50;0.40;;;;;;;-144.22;100.00;60274.75;6253562;28;20720;-39
2022/10/25 06:44:46;;;;;;;0.83;0.43;;;;;;;-144.22;100.00;60274.75;6253440;28;20718;-40
2022/10/25 06:47:48;;;;;;;1.63;0.33;;;;;;;-144.22;100.00;60274.75;6254687;28;20325;-39
2022/10/25 06:51:04;;;;;;;1.73;0.43;;;;;;;-144.22;100.00;60274.75;6253502;28;20242;-40
2022/10/25 06:54:08;;;;;;;1.50;0.50;;;;;;;-144.22;100.00;60274.75;6252832;28;20255;-41
2022/10/25 06:57:10;;;;;;;1.30;0.40;;;;;;;-144.22;100.00;60274.75;6253254;28;20679;-40
2022/10/25 07:00:12;;;;;;;1.13;0.50;;;;;;;-144.22;100.00;60274.75;6268010;28;20235;-39
2022/10/25 07:03:14;;;;;;;0.80;0.47;;;;;;;-144.22;100.00;60274.75;6254049;28;20220;-39
2022/10/25 07:06:21;;;;;;;1.23;0.40;;;;;;;-144.22;100.00;60274.75;6252686;28;20630;-39
2022/10/25 07:09:24;;;;;;;0.60;0.50;;;;;;;-144.22;100.00;60274.75;6249933;28;20304;-39
2022/10/25 07:12:26;;;;;;;1.77;0.40;;;;;;;-144.22;100.00;60274.75;6244138;28;20254;-40
2022/10/25 07:15:28;;;;;;;2.33;0.40;;;;;;;-144.22;100.00;60274.75;6247198;28;20373;-40
2022/10/25 07:18:32;;;;;;;1.03;0.37;;;;;;;13.65;100.00;79594.81;6246571;28;20239;-40
2022/10/25 07:21:34;;;;;;;0.50;0.50;;;;;;;13.80;100.00;60274.75;6248315;28;20230;-39
2022/10/25 07:24:36;;;;;;;1.87;0.40;;;;;;;-144.22;100.00;60274.75;6247975;28;20239;-39
2022/10/25 07:27:38;;;;;;;0.40;0.40;;;;;;;-144.22;100.00;60274.75;6246793;28;20706;-41
2022/10/25 07:30:45;;;;;;;1.30;0.30;;;;;;;-144.22;100.00;60274.75;6248248;28;20235;-39
2022/10/25 07:33:48;;;;;;;1.30;0.50;;;;;;;-144.22;100.00;60274.75;6247211;28;20243;-40
2022/10/25 07:36:50;;;;;;;2.10;0.50;;;;;;;188.01;100.00;60274.75;6262511;28;20234;-39
2022/10/25 07:39:52;;;;;;;1.23;0.60;;;;;;;-144.22;100.00;60274.75;6247682;28;20242;-39
2022/10/25 07:42:54;;;;;;;0.77;0.40;;;;;;;188.01;100.00;60274.75;6247477;28;20227;-40
2022/10/25 07:45:56;;;;;;;1.70;0.37;;;;;;;-144.22;100.00;60274.75;6253135;28;20227;-39
2022/10/25 07:48:58;;;;;;;0.47;0.40;;;;;;;188.01;100.00;60274.75;6246948;28;20284;-39
2022/10/25 07:52:01;;;;;;;0.60;0.30;;;;;;;-144.22;100.00;60274.75;6249318;28;20239;-40
2022/10/25 07:55:03;;;;;;;0.70;0.50;;;;;;;188.01;100.00;60274.75;6249187;28;20242;-39
2022/10/25 07:58:08;;;;;;;0.80;0.43;;;;;;;-144.22;100.00;60274.75;6248552;28;20850;-39
2022/10/25 08:01:13;;;;;;;0.80;0.30;;;;;;;188.01;100.00;60274.75;6247035;28;20668;-39
2022/10/25 08:04:15;;;;;;;0.30;0.30;;;;;;;-144.22;100.00;60274.75;6245569;28;20263;-39
2022/10/25 08:07:17;;;;;;;2.00;0.43;;;;;;;-144.22;100.00;60274.75;6246217;28;20234;-40
2022/10/25 08:10:20;;;;;;;2.07;0.50;;;;;;;-144.22;100.00;60274.75;6246451;28;20318;-39
2022/10/25 08:13:22;;;;;;;0.83;0.30;;;;;;;15.25;100.00;60274.75;6247482;28;20493;-40
2022/10/25 08:16:24;;;;;;;1.27;0.43;;;;;;;-144.22;100.00;60274.75;6245605;28;20238;-40
2022/10/25 08:19:26;;;;;;;2.53;0.50;;;;;;;15.20;100.00;60274.75;6246201;28;20239;-40
2022/10/25 08:22:28;;;;;;;1.43;0.50;;;;;;;-144.22;100.00;60274.75;6246632;28;20713;-39
2022/10/25 08:25:30;;;;;;;0.93;0.40;;;;;;;-144.22;100.00;60274.75;6244769;28;20254;-40
2022/10/25 08:28:32;;;;;;;1.17;0.40;;;;;;;-144.22;100.00;60274.75;6248486;28;20246;-40
2022/10/25 08:31:35;;;;;;;1.73;0.50;;;;;;;15.52;100.00;60274.75;6246323;28;20615;-40
2022/10/25 08:34:37;;;;;;;0.73;0.50;;;;;;;-144.22;100.00;60274.75;6246203;28;20678;-40
2022/10/25 08:37:39;;;;;;;0.80;0.30;;;;;;;-144.22;100.00;60274.75;6244284;28;20604;-40
2022/10/25 08:40:59;;;;;;;0.40;0.37;;;;;;;15.96;100.00;60274.75;6243868;28;20304;-40
2022/10/25 08:44:30;;;;;;;0.67;0.30;;;;;;;-144.22;100.00;60274.75;6244954;28;20276;-40
2022/10/25 08:47:39;;;;;;;0.97;0.40;;;;;;;188.01;100.00;60274.75;6244400;28;20615;-40
2022/10/25 08:50:46;;;;;;;0.63;0.47;;;;;;;-144.22;100.00;60274.75;6230339;28;20235;-40
2022/10/25 08:53:51;;;;;;;1.70;0.30;;;;;;;-144.22;100.00;60274.75;6243912;28;20734;-41
2022/10/25 08:57:14;;;;;;;0.53;0.37;;;;;;;-144.22;100.00;60274.75;6245275;28;20253;-40
2022/10/25 09:00:21;;;;;;;0.50;0.40;;;;;;;-144.22;100.00;60274.75;6260123;28;20361;-40
2022/10/25 09:03:25;;;;;;;1.87;0.40;;;;;;;-144.22;100.00;60274.75;6244663;28;20271;-41
2022/10/25 09:06:29;;;;;;;1.37;0.50;;;;;;;-144.22;100.00;60274.75;6244602;28;20747;-40
2022/10/25 09:09:37;;;;;;;3.57;0.93;;;;;;;-144.22;100.00;60274.75;6244057;28;20231;-40
2022/10/25 09:12:55;;;;;;;3.43;0.60;;;;;;;-144.22;100.00;60274.75;6244514;28;20259;-40
2022/10/25 09:16:08;;;;;;;1.50;0.50;;;;;;;-144.22;100.00;60274.75;6243938;28;20231;-40
2022/10/25 09:19:47;;;;;;;2.40;0.73;;;;;;;17.35;100.00;60274.75;6245079;28;20273;-41
2022/10/25 09:23:10;;;;;;;2.20;0.50;;;;;;;-144.22;100.00;60274.75;6243954;28;20811;-40
2022/10/25 09:26:38;;;;;;;1.30;0.50;;;;;;;17.80;100.00;60274.75;6243841;28;20242;-40
2022/10/25 09:29:48;;;;;;;1.10;0.50;;;;;;;-144.22;100.00;60274.75;6244600;28;20349;-40
2022/10/25 09:32:59;;;;;;;1.17;0.43;;;;;;;-144.22;100.00;60274.75;6243812;28;20264;-40
2022/10/25 09:36:03;;;;;;;2.93;0.50;;;;;;;18.16;100.00;60274.75;6243860;28;20247;-42
2022/10/25 09:39:21;;;;;;;2.43;0.50;;;;;;;-144.22;100.00;60274.75;6243538;28;20234;-40
2022/10/25 09:42:29;;;;;;;0.90;0.60;;;;;;;-144.22;100.00;60274.75;6243424;28;20243;-40
2022/10/25 09:45:42;;;;;;;0.97;0.50;;;;;;;18.39;100.00;60274.75;6244090;28;20574;-40
2022/10/25 09:49:00;;;;;;;0.60;0.40;;;;;;;-144.22;100.00;60274.75;6243474;28;20610;-40
2022/10/25 09:52:14;;;;;;;3.03;0.70;;;;;;;-144.22;100.00;60274.75;6234754;28;20325;-40
2022/10/25 09:55:25;;;;;;;1.97;0.67;;;;;;;-144.22;100.00;60274.75;6244575;28;20247;-40
2022/10/25 09:58:29;;;;;;;1.47;0.50;;;;;;;-144.22;100.00;60274.75;6244122;28;20268;-40
2022/10/25 10:01:34;;;;;;;1.77;0.40;;;;;;;-144.22;100.00;60274.75;6244463;28;20270;-40
2022/10/25 10:04:38;;;;;;;2.13;0.67;;;;;;;-144.22;100.00;60274.75;6243308;28;20249;-40
2022/10/25 10:07:40;;;;;;;1.43;0.40;;;;;;;-144.22;100.00;60274.75;6243321;28;20242;-40
2022/10/25 10:10:45;;;;;;;3.03;0.60;;;;;;;-144.22;100.00;60274.75;6243109;28;20610;-40
2022/10/25 10:13:54;;;;;;;1.10;0.40;;;;;;;-144.22;100.00;60274.75;6242896;28;20247;-40
2022/10/25 10:16:58;;;;;;;2.27;0.47;;;;;;;-144.22;100.00;60274.75;6244027;28;20247;-40
2022/10/25 10:20:15;;;;;;;1.37;0.43;;;;;;;-144.22;100.00;60274.75;6243072;28;20243;-40
2022/10/25 10:23:18;;;;;;;0.40;0.30;;;;;;;-144.22;100.00;60274.75;6246587;28;20708;-40
2022/10/25 10:26:35;;;;;;;2.70;0.50;;;;;;;-144.22;100.00;60274.75;6245941;28;20640;-40
2022/10/25 10:29:58;;;;;;;1.20;0.40;;;;;;;-144.22;100.00;60274.75;6242802;28;20464;-40
2022/10/25 10:33:01;;;;;;;0.53;0.40;;;;;;;-144.22;100.00;60274.75;6243380;28;20261;-40
2022/10/25 10:36:27;;;;;;;1.47;0.47;;;;;;;-144.22;100.00;60274.75;6242646;28;20231;-41
2022/10/25 10:39:30;;;;;;;1.07;0.50;;;;;;;-144.22;100.00;60274.75;6243663;28;20322;-41
2022/10/25 10:42:35;;;;;;;0.33;0.30;;;;;;;-144.22;100.00;60274.75;6242124;28;20227;-41
2022/10/25 10:45:47;;;;;;;1.27;0.60;;;;;;;-144.22;100.00;60274.75;6242722;28;20245;-41
2022/10/25 10:48:55;;;;;;;0.50;0.40;;;;;;;-144.22;100.00;60274.75;6244409;28;20616;-40
2022/10/25 10:51:57;;;;;;;1.10;0.60;;;;;;;19.15;100.00;60274.75;6247090;28;20273;-40
2022/10/25 10:54:59;;;;;;;0.50;0.33;;;;;;;-144.22;100.00;60274.75;6248296;28;20698;-40
2022/10/25 10:58:05;;;;;;;0.97;0.60;;;;;;;-144.22;100.00;60274.75;6247481;28;20323;-40
2022/10/25 11:01:15;;;;;;;0.67;0.50;;;;;;;20.44;100.00;60274.75;6247596;28;20284;-41
2022/10/25 11:04:17;;;;;;;1.43;0.50;;;;;;;-144.22;100.00;60274.75;6262445;28;20703;-41
2022/10/25 11:07:33;;;;;;;1.37;0.30;;;;;;;-144.22;100.00;60274.75;6246890;28;20243;-40
2022/10/25 11:10:36;;;;;;;1.20;0.50;;;;;;;-144.22;100.00;60274.75;6247656;28;20243;-41
2022/10/25 11:13:38;;;;;;;0.77;0.30;;;;;;;-144.22;100.00;60274.75;6246913;28;20344;-40
2022/10/25 11:16:57;;;;;;;3.37;0.57;;;;;;;-144.22;100.00;60274.75;6246693;28;20237;-41
2022/10/25 11:20:24;;;;;;;0.50;0.30;;;;;;;-144.22;100.00;60274.75;6246291;28;20605;-41
2022/10/25 11:23:35;;;;;;;0.83;0.30;;;;;;;-144.22;100.00;60274.75;6247189;28;20734;-40
2022/10/25 11:26:52;;;;;;;0.70;0.50;;;;;;;-144.22;100.00;60274.75;6246381;28;20593;-41
2022/10/25 11:30:11;;;;;;;0.83;0.37;;;;;;;19.83;100.00;60274.75;6247492;28;20718;-41
2022/10/25 11:33:34;;;;;;;0.50;0.50;;;;;;;-144.22;100.00;60274.75;6230014;28;20269;-40
2022/10/25 11:36:49;;;;;;;0.50;0.37;;;;;;;-144.22;100.00;60274.75;6247548;28;20614;-40
2022/10/25 11:40:00;;;;;;;1.27;0.50;;;;;;;-144.22;100.00;60274.75;6247325;28;20243;-42
2022/10/25 11:43:45;;;;;;;1.33;0.50;;;;;;;-144.22;100.00;60274.75;6246670;28;20722;-43
2022/10/25 11:46:47;;;;;;;1.43;0.50;;;;;;;21.54;100.00;60274.75;6247209;28;20285;-40
2022/10/25 11:50:18;;;;;;;2.73;0.60;;;;;;;-144.22;100.00;60274.75;6247232;28;20787;-40
2022/10/25 11:53:27;;;;;;;0.30;0.30;;;;;;;-144.22;100.00;60274.75;6238944;28;20258;-41
2022/10/25 11:56:47;;;;;;;1.23;0.40;;;;;;;21.60;100.00;60274.75;6236127;28;20247;-41
2022/10/25 12:00:00;;;;;;;2.90;0.60;;;;;;;21.57;100.00;60274.75;6235909;28;20497;-41
2022/10/25 12:03:11;;;;;;;0.67;0.40;;;;;;;-144.22;100.00;60274.75;6235731;28;20819;-41
2022/10/25 12:06:50;;;;;;;0.70;0.40;;;;;;;-144.22;100.00;60274.75;6237072;28;20219;-42
2022/10/25 12:10:05;;;;;;;1.07;0.50;;;;;;;104.84;100.00;60274.75;6236315;28;20248;-42
2022/10/25 12:13:13;;;;;;;1.00;0.60;;;;;;;-144.22;100.00;60274.75;6236277;28;20258;-43
2022/10/25 12:16:18;;;;;;;1.57;0.50;;;;;;;-144.22;100.00;60274.75;6235942;28;20226;-41
2022/10/25 12:19:24;;;;;;;3.20;0.70;;;;;;;-144.22;100.00;60274.75;6236063;28;20804;-42
2022/10/25 12:22:35;;;;;;;1.20;0.40;;;;;;;-144.22;100.00;60274.75;6236138;28;20242;-41
2022/10/25 12:25:42;;;;;;;1.07;0.40;;;;;;;-144.22;100.00;60274.75;6235532;28;20301;-41
2022/10/25 12:28:47;;;;;;;1.37;0.40;;;;;;;-144.22;100.00;60274.75;6206826;28;20236;-42
2022/10/25 12:31:58;;;;;;;1.53;0.47;;;;;;;-144.22;100.00;60274.75;6210446;28;20330;-41
2022/10/25 12:35:03;;;;;;;2.07;0.57;;;;;;;-144.22;100.00;60274.75;6211814;28;20347;-42
2022/10/25 12:38:14;;;;;;;3.03;0.60;;;;;;;-144.22;100.00;60274.75;6210892;28;20951;-41
2022/10/25 12:41:23;;;;;;;0.77;0.50;;;;;;;-144.22;100.00;60274.75;6210686;28;20236;-41
2022/10/25 12:44:40;;;;;;;2.97;0.80;;;;;;;188.01;100.00;60274.75;6210879;28;20247;-44
2022/10/25 12:47:48;;;;;;;2.37;0.77;;;;;;;-144.22;100.00;60274.75;6210012;28;20235;-42
2022/10/25 12:51:07;;;;;;;1.27;0.60;;;;;;;-144.22;100.00;60274.75;6211033;28;20235;-41
2022/10/25 12:54:30;;;;;;;1.70;0.80;;;;;;;-144.22;100.00;60274.75;6210168;28;20948;-41
2022/10/25 12:57:47;;;;;;;3.57;0.50;;;;;;;29.53;100.00;60274.75;6210302;28;20236;-41
2022/10/25 13:01:28;;;;;;;0.90;0.60;;;;;;;-144.22;100.00;60274.75;6225080;28;20236;-41
2022/10/25 13:04:53;;;;;;;1.10;0.50;;;;;;;30.83;100.00;60274.75;6208133;28;20235;-41
2022/10/25 13:08:02;;;;;;;1.00;0.50;;;;;;;-144.22;100.00;60274.75;6211144;28;20240;-41
2022/10/25 13:11:06;;;;;;;1.57;0.60;;;;;;;-144.22;100.00;60274.75;6208941;28;20826;-41
2022/10/25 13:14:42;;;;;;;3.90;0.60;;;;;;;32.61;100.00;60274.75;6209883;28;20759;-42
2022/10/25 13:17:57;;;;;;;1.98;0.60;;;;;;;-144.22;100.00;60274.75;6210677;28;20239;-41
2022/10/25 13:21:01;;;;;;;0.93;0.52;;;;;;;104.84;100.00;60274.75;6210377;28;20613;-42
2022/10/25 13:24:03;;;;;;;3.30;0.77;;;;;;;-144.22;100.00;60274.75;6209496;28;20328;-41
2022/10/25 13:27:11;;;;;;;2.30;0.57;;;;;;;-144.22;100.00;60274.75;6209527;28;20294;-42
2022/10/25 13:30:26;;;;;;;1.38;0.47;;;;;;;25.96;100.00;60274.75;6233743;28;20246;-41
2022/10/25 13:33:32;;;;;;;1.25;0.60;;;;;;;-144.22;100.00;60274.75;6218101;28;20273;-41
2022/10/25 13:36:54;;;;;;;3.47;0.90;;;;;;;21.92;41.90;98011.06;6235072;28;20247;-41
2022/10/25 13:40:27;;;;;;;1.20;0.73;;;;;;;20.84;44.94;98013.31;6233379;28;20239;-40
2022/10/25 13:43:29;;;;;;;2.50;0.40;;;;;;;20.19;46.96;98027.09;6233273;28;20232;-42
2022/10/25 13:46:37;;;;;;;2.27;0.60;;;;;;;19.57;48.40;98018.09;6233686;28;20238;-40
2022/10/25 13:49:42;;;;;;;3.47;0.70;;;;;;;19.11;51.20;98025.84;6233876;28;20667;-40
2022/10/25 13:53:09;;;;;;;1.57;0.70;;;;;;;18.82;52.33;98032.72;6234460;28;20588;-41
2022/10/25 13:56:22;;;;;;;1.07;0.60;;;;;;;18.65;52.63;98031.88;6233858;28;20231;-42
2022/10/25 13:59:36;;;;;;;1.00;0.43;;;;;;;18.47;52.55;98033.81;6233751;28;21162;-40
2022/10/25 14:03:04;;;;;;;1.13;0.60;;;;;;;18.25;53.28;98038.78;6234211;28;20292;-41
2022/10/25 14:06:20;;;;;;;4.53;1.00;;;;;;;18.15;53.74;98027.38;6233672;28;20238;-41
2022/10/25 14:09:35;;;;;;;2.00;0.80;;;;;;;18.05;54.25;98038.19;6233993;28;20326;-41
2022/10/25 14:12:41;;;;;;;1.37;0.80;;;;;;;18.01;54.13;98033.34;6233820;28;20231;-40
2022/10/25 14:15:59;;;;;;;2.47;0.57;;;;;;;17.92;54.34;98029.78;6232986;28;20242;-40
2022/10/25 14:19:10;;;;;;;1.13;0.70;;;;;;;17.79;55.04;98031.22;6232937;28;20247;-40
2022/10/25 14:22:16;;;;;;;3.00;0.73;;;;;;;17.70;55.50;98028.53;6231966;28;20690;-41
2022/10/25 14:25:23;;;;;;;2.13;0.70;;;;;;;17.59;56.28;98027.91;6238045;28;20272;-41